createdAt,value
2023-02-03T00:01:03.946Z,9.47
2023-02-03T00:03:30.624Z,9.53
2023-02-03T00:05:57.490Z,9.44
2023-02-03T00:08:24.179Z,9.39
2023-02-03T00:10:51.269Z,9.48
2023-02-03T00:13:18.095Z,9.53
2023-02-03T00:15:44.934Z,9.47
2023-02-03T00:18:12.059Z,9.58
2023-02-03T00:20:38.770Z,9.36
2023-02-03T00:23:10.073Z,9.42
2023-02-03T00:25:37.379Z,9.33
2023-02-03T00:28:05.437Z,9.42
2023-02-03T00:30:35.744Z,9.33
2023-02-03T00:33:03.605Z,9.33
2023-02-03T00:35:30.518Z,9.45
2023-02-03T00:37:58.348Z,9.38
2023-02-03T00:40:27.083Z,9.44
2023-02-03T00:42:57.112Z,9.34
2023-02-03T00:45:25.440Z,9.32
2023-02-03T00:47:52.320Z,9.20
2023-02-03T00:50:19.090Z,9.21
2023-02-03T00:52:45.860Z,9.09
2023-02-03T00:55:12.575Z,9.11
2023-02-03T00:57:39.313Z,9.19
2023-02-03T01:00:07.403Z,9.23
2023-02-03T01:02:38.741Z,9.17
2023-02-03T01:05:11.828Z,8.98
2023-02-03T01:07:38.962Z,8.95
2023-02-03T01:10:06.671Z,8.84
2023-02-03T01:12:33.477Z,8.92
2023-02-03T01:15:00.259Z,9.07
2023-02-03T01:17:27.160Z,9.13
2023-02-03T01:19:54.178Z,9.14
2023-02-03T01:22:21.133Z,8.85
2023-02-03T01:24:49.601Z,8.62
2023-02-03T01:27:16.371Z,8.53
2023-02-03T01:29:43.074Z,8.62
2023-02-03T01:32:09.824Z,8.49
2023-02-03T01:34:36.662Z,8.64
2023-02-03T01:37:03.459Z,8.62
2023-02-03T01:39:30.227Z,8.33
2023-02-03T01:41:57.302Z,8.31
2023-02-03T01:44:39.908Z,8.23
2023-02-03T01:47:16.717Z,8.25
2023-02-03T01:50:07.273Z,8.34
2023-02-03T01:52:34.575Z,8.52
2023-02-03T01:55:05.809Z,8.48
2023-02-03T01:57:38.286Z,8.57
2023-02-03T02:00:08.023Z,8.32
2023-02-03T02:02:44.473Z,8.29
2023-02-03T02:05:22.600Z,8.14
2023-02-03T02:07:49.875Z,8.11
2023-02-03T02:10:16.916Z,7.96
2023-02-03T02:12:43.958Z,7.96
2023-02-03T02:15:11.088Z,7.80
2023-02-03T02:18:05.596Z,7.91
2023-02-03T02:20:32.270Z,7.88
2023-02-03T02:23:13.927Z,7.92
2023-02-03T02:25:59.009Z,8.05
2023-02-03T02:28:44.463Z,7.93
2023-02-03T02:31:53.723Z,7.93
2023-02-03T02:34:57.428Z,7.97
2023-02-03T02:37:28.105Z,7.96
2023-02-03T02:40:07.629Z,8.08
2023-02-03T02:42:59.770Z,8.07
2023-02-03T02:45:50.979Z,8.12
2023-02-03T02:48:42.030Z,8.11
2023-02-03T02:51:12.365Z,8.21
2023-02-03T02:53:44.410Z,8.23
2023-02-03T02:56:15.522Z,8.29
2023-02-03T02:58:47.312Z,8.36
2023-02-03T03:01:14.480Z,8.32
2023-02-03T03:03:45.053Z,8.26
2023-02-03T03:06:14.724Z,8.19
2023-02-03T03:09:11.965Z,8.24
2023-02-03T03:11:50.272Z,8.11
2023-02-03T03:14:21.657Z,8.16
2023-02-03T03:16:57.346Z,8.07
2023-02-03T03:19:28.499Z,8.06
2023-02-03T03:21:59.828Z,7.94
2023-02-03T03:24:33.810Z,7.92
2023-02-03T03:27:19.266Z,7.90
2023-02-03T03:29:59.534Z,7.96
2023-02-03T03:32:28.245Z,7.94
2023-02-03T03:34:55.970Z,7.99
2023-02-03T03:37:32.638Z,7.79
2023-02-03T03:40:23.968Z,7.70
2023-02-03T03:42:58.116Z,7.84
2023-02-03T03:45:47.094Z,7.79
2023-02-03T03:48:21.711Z,7.60
2023-02-03T03:50:55.605Z,7.70
2023-02-03T03:53:23.958Z,7.53
2023-02-03T03:55:52.950Z,7.61
2023-02-03T03:58:30.484Z,7.60
2023-02-03T04:01:01.320Z,7.53
2023-02-03T04:03:33.986Z,7.54
2023-02-03T04:06:00.836Z,7.47
2023-02-03T04:08:27.673Z,7.45
2023-02-03T04:10:54.491Z,7.43
2023-02-03T04:13:21.236Z,7.57
2023-02-03T04:15:48.054Z,7.55
2023-02-03T04:18:16.485Z,7.64
2023-02-03T04:20:43.527Z,7.59
2023-02-03T04:23:10.306Z,7.58
2023-02-03T04:25:37.108Z,7.56
2023-02-03T04:28:04.305Z,7.54
2023-02-03T04:30:31.235Z,7.53
2023-02-03T04:32:58.104Z,7.55
2023-02-03T04:35:26.093Z,7.45
2023-02-03T04:37:52.878Z,7.36
2023-02-03T04:40:19.719Z,7.38
2023-02-03T04:42:46.518Z,7.28
2023-02-03T04:45:13.370Z,7.23
2023-02-03T04:47:40.301Z,7.26
2023-02-03T04:50:07.783Z,7.07
2023-02-03T04:52:34.614Z,7.10
2023-02-03T04:55:01.429Z,7.18
2023-02-03T04:57:28.200Z,7.20
2023-02-03T04:59:54.952Z,7.02
2023-02-03T05:02:21.766Z,7.20
2023-02-03T05:04:48.532Z,7.16
2023-02-03T05:07:15.248Z,7.30
2023-02-03T05:09:42.064Z,7.40
2023-02-03T05:12:08.814Z,7.88
2023-02-03T05:14:35.518Z,7.80
2023-02-03T05:17:02.338Z,8.12
2023-02-03T05:19:29.058Z,8.12
2023-02-03T05:21:55.796Z,8.18
2023-02-03T05:24:22.548Z,8.18
2023-02-03T05:26:49.255Z,8.50
2023-02-03T05:29:15.969Z,8.22
2023-02-03T05:31:42.768Z,7.95
2023-02-03T05:34:09.570Z,7.45
2023-02-03T05:36:36.331Z,7.40
2023-02-03T05:39:03.654Z,7.25
2023-02-03T05:41:48.804Z,7.12
2023-02-03T05:44:15.647Z,7.14
2023-02-03T05:46:42.458Z,7.13
2023-02-03T05:49:09.211Z,7.12
2023-02-03T05:51:36.101Z,7.19
2023-02-03T05:54:02.958Z,7.34
2023-02-03T05:56:29.714Z,7.38
2023-02-03T05:58:56.472Z,7.41
2023-02-03T06:01:23.552Z,7.55
2023-02-03T06:03:50.645Z,7.57
2023-02-03T06:06:17.963Z,7.65
2023-02-03T06:08:44.734Z,7.64
2023-02-03T06:11:12.981Z,7.72
2023-02-03T06:13:39.747Z,7.78
2023-02-03T06:16:06.711Z,7.77
2023-02-03T06:18:33.462Z,7.79
2023-02-03T06:21:00.460Z,7.80
2023-02-03T06:23:27.237Z,7.52
2023-02-03T06:25:54.118Z,7.73
2023-02-03T06:28:20.982Z,7.43
2023-02-03T06:30:51.272Z,7.43
2023-02-03T06:33:18.107Z,7.40
2023-02-03T06:35:45.113Z,7.30
2023-02-03T06:38:11.999Z,7.31
2023-02-03T06:40:38.846Z,7.21
2023-02-03T06:43:05.666Z,7.27
2023-02-03T06:45:32.433Z,7.30
2023-02-03T06:47:59.208Z,7.27
2023-02-03T06:50:26.210Z,7.33
2023-02-03T06:52:53.230Z,7.32
2023-02-03T06:55:19.990Z,7.40
2023-02-03T06:57:48.027Z,7.20
2023-02-03T07:00:19.041Z,7.38
2023-02-03T07:02:46.837Z,7.44
2023-02-03T07:05:14.004Z,7.24
2023-02-03T07:07:40.818Z,7.49
2023-02-03T07:10:08.423Z,7.28
2023-02-03T07:12:36.652Z,7.39
2023-02-03T07:15:06.797Z,7.40
2023-02-03T07:17:33.581Z,7.15
2023-02-03T07:20:00.339Z,7.14
2023-02-03T07:22:27.294Z,7.13
2023-02-03T07:24:54.033Z,7.15
2023-02-03T07:27:20.872Z,7.23
2023-02-03T07:29:47.630Z,7.19
2023-02-03T07:32:14.482Z,7.19
2023-02-03T07:34:41.394Z,7.15
2023-02-03T07:37:08.267Z,7.29
2023-02-03T07:39:35.023Z,7.36
2023-02-03T07:42:01.838Z,7.41
2023-02-03T07:44:29.609Z,7.65
2023-02-03T07:46:56.485Z,7.71
2023-02-03T07:49:23.345Z,7.71
2023-02-03T07:51:50.035Z,7.69
2023-02-03T07:54:16.817Z,7.74
2023-02-03T07:56:43.635Z,7.71
2023-02-03T07:59:10.569Z,7.66
2023-02-03T08:01:37.423Z,7.71
2023-02-03T08:04:05.649Z,8.00
2023-02-03T08:06:32.614Z,8.01
2023-02-03T08:08:59.457Z,8.06
2023-02-03T08:11:26.224Z,7.98
2023-02-03T08:13:53.060Z,7.98
2023-02-03T08:16:19.806Z,8.03
2023-02-03T08:18:46.599Z,8.06
2023-02-03T08:21:13.365Z,8.03
2023-02-03T08:23:40.190Z,8.02
2023-02-03T08:26:07.091Z,8.11
2023-02-03T08:28:33.916Z,8.09
2023-02-03T08:31:00.737Z,8.00
2023-02-03T08:33:28.773Z,7.99
2023-02-03T08:35:56.834Z,8.18
2023-02-03T08:38:23.663Z,8.28
2023-02-03T08:40:50.457Z,8.44
2023-02-03T08:43:17.296Z,8.58
2023-02-03T08:45:44.186Z,8.66
2023-02-03T08:48:11.159Z,8.65
2023-02-03T08:50:38.089Z,8.82
2023-02-03T08:53:04.855Z,8.92
2023-02-03T08:55:31.584Z,8.88
2023-02-03T08:57:58.424Z,8.82
2023-02-03T09:00:25.713Z,8.97
2023-02-03T09:02:52.669Z,9.01
2023-02-03T09:05:19.515Z,9.08
2023-02-03T09:07:46.341Z,9.27
2023-02-03T09:10:13.207Z,9.28
2023-02-03T09:12:40.064Z,9.31
2023-02-03T09:15:07.171Z,9.34
2023-02-03T09:17:34.018Z,9.54
2023-02-03T09:20:00.935Z,9.72
2023-02-03T09:22:27.685Z,9.84
2023-02-03T09:24:54.632Z,9.95
2023-02-03T09:27:21.342Z,10.04
2023-02-03T09:29:48.049Z,9.87
2023-02-03T09:32:15.746Z,9.83
2023-02-03T09:34:42.908Z,9.94
2023-02-03T09:37:09.811Z,9.98
2023-02-03T09:39:36.529Z,10.24
2023-02-03T09:42:32.447Z,10.33
2023-02-03T09:45:13.144Z,10.28
2023-02-03T09:47:43.518Z,10.38
2023-02-03T09:50:23.730Z,10.70
2023-02-03T09:52:51.890Z,10.73
2023-02-03T09:55:27.551Z,10.98
2023-02-03T09:58:14.031Z,11.06
2023-02-03T10:00:48.166Z,11.07
2023-02-03T10:03:25.992Z,11.27
2023-02-03T10:06:07.087Z,11.31
2023-02-03T10:08:55.378Z,11.40
2023-02-03T10:11:50.232Z,11.63
2023-02-03T10:14:46.136Z,11.69
2023-02-03T10:17:37.832Z,11.90
2023-02-03T10:20:22.335Z,12.04
2023-02-03T10:22:54.131Z,12.11
2023-02-03T10:25:32.334Z,12.20
2023-02-03T10:28:05.254Z,12.35
2023-02-03T10:30:45.484Z,12.46
2023-02-03T10:33:16.540Z,12.44
2023-02-03T10:35:53.941Z,12.52
2023-02-03T10:38:39.993Z,12.67
2023-02-03T10:41:07.392Z,12.69
2023-02-03T10:43:52.820Z,12.84
2023-02-03T10:46:23.859Z,12.94
2023-02-03T10:48:50.726Z,13.07
2023-02-03T10:51:24.590Z,13.22
2023-02-03T10:53:53.622Z,13.23
2023-02-03T10:56:25.989Z,13.36
2023-02-03T10:59:00.555Z,13.52
2023-02-03T11:01:49.352Z,13.72
2023-02-03T11:04:31.723Z,13.89
2023-02-03T11:07:03.855Z,14.01
2023-02-03T11:09:38.231Z,14.18
2023-02-03T11:12:16.318Z,14.34
2023-02-03T11:14:45.992Z,14.49
2023-02-03T11:17:23.521Z,14.58
2023-02-03T11:19:55.532Z,14.69
2023-02-03T11:22:36.892Z,14.80
2023-02-03T11:25:15.842Z,14.86
2023-02-03T11:27:43.306Z,14.94
2023-02-03T11:30:30.628Z,15.17
2023-02-03T11:33:02.155Z,15.11
2023-02-03T11:35:31.869Z,15.36
2023-02-03T11:38:02.280Z,15.47
2023-02-03T11:40:34.232Z,15.62
2023-02-03T11:43:05.812Z,15.66
2023-02-03T11:45:42.158Z,15.78
2023-02-03T11:48:23.759Z,15.95
2023-02-03T11:51:22.450Z,16.12
2023-02-03T11:53:57.485Z,16.21
2023-02-03T11:56:33.266Z,16.33
2023-02-03T11:59:20.892Z,16.41
2023-02-03T12:02:15.680Z,16.51
2023-02-03T12:05:20.567Z,16.63
2023-02-03T12:07:59.318Z,16.69
2023-02-03T12:10:42.065Z,16.68
2023-02-03T12:13:41.289Z,16.59
2023-02-03T12:16:55.726Z,16.62
2023-02-03T12:19:22.462Z,16.59
2023-02-03T12:22:30.419Z,16.61
2023-02-03T12:25:23.449Z,16.65
2023-02-03T12:28:04.176Z,16.73
2023-02-03T12:30:38.612Z,16.71
2023-02-03T12:33:16.415Z,16.75
2023-02-03T12:36:13.188Z,16.80
2023-02-03T12:39:03.585Z,16.86
2023-02-03T12:41:36.623Z,16.78
2023-02-03T12:44:20.210Z,16.82
2023-02-03T12:46:56.393Z,16.77
2023-02-03T12:49:44.927Z,16.82
2023-02-03T12:52:18.469Z,16.88
2023-02-03T12:55:16.341Z,16.90
2023-02-03T12:58:06.470Z,16.89
2023-02-03T13:00:57.329Z,16.90
2023-02-03T13:03:50.348Z,16.93
2023-02-03T13:06:32.496Z,16.94
2023-02-03T13:09:08.599Z,16.90
2023-02-03T13:11:48.694Z,16.77
2023-02-03T13:14:40.223Z,16.80
2023-02-03T13:17:15.626Z,16.88
2023-02-03T13:19:50.446Z,16.92
2023-02-03T13:22:17.973Z,16.96
2023-02-03T13:24:56.484Z,16.89
2023-02-03T13:27:46.942Z,16.82
2023-02-03T13:30:55.195Z,16.81
2023-02-03T13:34:04.040Z,16.87
2023-02-03T13:36:39.700Z,16.83
2023-02-03T13:40:03.678Z,16.80
2023-02-03T13:42:38.309Z,16.71
2023-02-03T13:45:41.645Z,16.64
2023-02-03T13:48:22.521Z,16.65
2023-02-03T13:51:05.371Z,16.57
2023-02-03T13:53:36.872Z,16.57
2023-02-03T13:56:18.227Z,16.48
2023-02-03T13:59:13.973Z,16.51
2023-02-03T14:01:42.703Z,16.35
2023-02-03T14:04:31.710Z,16.37
2023-02-03T14:07:01.551Z,16.34
2023-02-03T14:09:31.544Z,16.32
2023-02-03T14:12:30.261Z,16.33
2023-02-03T14:15:04.947Z,16.35
2023-02-03T14:17:34.481Z,16.33
2023-02-03T14:20:22.615Z,16.32
2023-02-03T14:22:50.023Z,16.37
2023-02-03T14:25:19.045Z,16.34
2023-02-03T14:27:45.912Z,16.36
2023-02-03T14:30:16.862Z,16.37
2023-02-03T14:32:59.477Z,16.37
2023-02-03T14:35:40.287Z,16.35
2023-02-03T14:38:10.898Z,16.31
2023-02-03T14:40:48.128Z,16.26
2023-02-03T14:43:24.326Z,16.22
2023-02-03T14:46:09.842Z,16.22
2023-02-03T14:49:09.142Z,16.21
2023-02-03T14:51:55.874Z,16.16
2023-02-03T14:54:47.677Z,16.16
2023-02-03T14:57:29.403Z,16.14
2023-02-03T15:00:05.771Z,16.16
2023-02-03T15:02:34.408Z,16.09
2023-02-03T15:05:13.338Z,16.11
2023-02-03T15:07:45.510Z,16.07
2023-02-03T15:10:36.625Z,16.09
2023-02-03T15:13:03.390Z,16.08
2023-02-03T15:15:34.168Z,16.10
2023-02-03T15:18:21.333Z,16.05
2023-02-03T15:20:53.881Z,16.07
2023-02-03T15:23:48.146Z,16.02
2023-02-03T15:26:18.537Z,16.03
2023-02-03T15:29:05.011Z,15.96
2023-02-03T15:31:37.335Z,15.95
2023-02-03T15:34:23.216Z,15.93
2023-02-03T15:36:52.607Z,15.91
2023-02-03T15:39:39.586Z,15.87
2023-02-03T15:42:18.932Z,15.87
2023-02-03T15:45:17.778Z,15.84
2023-02-03T15:47:54.927Z,15.82
2023-02-03T15:50:31.335Z,15.83
2023-02-03T15:53:07.738Z,15.83
2023-02-03T15:55:43.591Z,15.81
2023-02-03T15:58:24.970Z,15.83
2023-02-03T16:00:55.981Z,15.89
2023-02-03T16:03:33.509Z,15.87
2023-02-03T16:06:30.683Z,15.90
2023-02-03T16:08:58.832Z,15.91
2023-02-03T16:11:33.549Z,15.86
2023-02-03T16:14:03.771Z,15.83
2023-02-03T16:16:39.593Z,15.81
2023-02-03T16:19:15.763Z,15.79
2023-02-03T16:21:48.295Z,15.77
2023-02-03T16:24:33.986Z,15.70
2023-02-03T16:27:19.556Z,15.70
2023-02-03T16:30:04.959Z,15.61
2023-02-03T16:32:50.182Z,15.61
2023-02-03T16:35:35.623Z,15.58
2023-02-03T16:38:35.403Z,15.60
2023-02-03T16:41:24.551Z,15.54
2023-02-03T16:44:09.912Z,15.55
2023-02-03T16:46:55.608Z,15.55
2023-02-03T16:49:41.042Z,15.51
2023-02-03T16:52:08.644Z,15.46
2023-02-03T16:54:35.410Z,15.42
2023-02-03T16:57:02.184Z,15.36
2023-02-03T16:59:28.888Z,15.29
2023-02-03T17:01:55.628Z,15.17
2023-02-03T17:04:22.384Z,15.14
2023-02-03T17:06:51.242Z,15.11
2023-02-03T17:09:23.475Z,15.02
2023-02-03T17:11:50.819Z,15.00
2023-02-03T17:14:17.523Z,14.97
2023-02-03T17:16:44.322Z,14.95
2023-02-03T17:19:12.188Z,14.92
2023-02-03T17:21:39.402Z,14.84
2023-02-03T17:24:06.623Z,14.83
2023-02-03T17:26:34.430Z,14.78
2023-02-03T17:29:03.455Z,14.72
2023-02-03T17:31:31.160Z,14.70
2023-02-03T17:33:59.039Z,14.67
2023-02-03T17:36:25.830Z,14.59
2023-02-03T17:55:24.552Z,14.41
2023-02-03T17:57:51.537Z,14.37
2023-02-03T18:00:18.574Z,14.32
2023-02-03T18:02:49.425Z,14.30
2023-02-03T18:05:16.308Z,14.30
2023-02-03T18:07:43.288Z,14.28
2023-02-03T18:10:10.608Z,14.22
2023-02-03T18:12:37.325Z,14.19
2023-02-03T18:15:04.186Z,14.14
2023-02-03T18:17:31.005Z,14.08
2023-02-03T18:20:00.411Z,14.07
2023-02-03T18:22:27.222Z,14.07
2023-02-03T18:24:55.451Z,14.08
2023-02-03T18:27:22.382Z,14.04
2023-02-03T18:29:49.079Z,14.03
2023-02-03T18:32:16.359Z,14.01
2023-02-03T18:34:43.354Z,14.00
2023-02-03T18:37:10.095Z,13.95
2023-02-03T18:39:36.862Z,13.93
2023-02-03T18:42:04.600Z,13.89
2023-02-03T18:44:31.824Z,13.94
2023-02-03T18:47:06.953Z,13.99
2023-02-03T18:49:36.214Z,13.85
2023-02-03T18:52:04.237Z,13.84
2023-02-03T18:54:31.302Z,13.72
2023-02-03T18:57:05.728Z,13.65
2023-02-03T18:59:32.474Z,13.61
2023-02-03T19:02:02.087Z,13.53
2023-02-03T19:04:29.033Z,13.62
2023-02-03T19:06:55.968Z,13.57
2023-02-03T19:09:23.803Z,13.63
2023-02-03T19:11:51.356Z,13.63
2023-02-03T19:14:18.222Z,13.45
2023-02-03T19:16:45.272Z,13.47
2023-02-03T19:19:13.962Z,13.38
2023-02-03T19:21:40.797Z,13.41
2023-02-03T19:24:07.674Z,13.45
2023-02-03T19:26:34.752Z,13.55
2023-02-03T19:29:01.500Z,13.57
2023-02-03T19:31:28.422Z,13.59
2023-02-03T19:33:58.790Z,13.60
2023-02-03T19:36:29.436Z,13.53
2023-02-03T19:38:56.997Z,13.58
2023-02-03T19:41:25.725Z,13.59
2023-02-03T19:43:52.593Z,13.63
2023-02-03T19:46:23.034Z,13.58
2023-02-03T19:48:50.360Z,13.61
2023-02-03T19:51:17.436Z,13.61
2023-02-03T19:53:44.244Z,13.63
2023-02-03T19:56:11.037Z,13.52
2023-02-03T19:58:38.962Z,13.53
2023-02-03T20:01:05.773Z,13.48
2023-02-03T20:03:32.803Z,13.41
2023-02-03T20:06:00.993Z,13.48
2023-02-03T20:08:28.479Z,13.51
2023-02-03T20:10:55.650Z,13.48
2023-02-03T20:13:22.476Z,13.49
2023-02-03T20:15:49.426Z,13.45
2023-02-03T20:18:16.257Z,13.43
2023-02-03T20:20:43.009Z,13.40
2023-02-03T20:23:09.881Z,13.37
2023-02-03T20:25:36.647Z,13.36
2023-02-03T20:28:04.353Z,13.32
2023-02-03T20:30:31.479Z,13.26
2023-02-03T20:32:58.733Z,13.26
2023-02-03T20:35:26.422Z,13.24
2023-02-03T20:37:53.431Z,13.26
2023-02-03T20:40:22.933Z,13.25
2023-02-03T20:42:51.227Z,13.19
2023-02-03T20:45:20.571Z,13.13
2023-02-03T20:47:48.029Z,13.08
2023-02-03T20:50:23.608Z,13.08
2023-02-03T20:52:52.773Z,13.00
2023-02-03T20:55:22.097Z,12.93
2023-02-03T20:57:55.081Z,12.85
2023-02-03T21:00:24.928Z,12.83
2023-02-03T21:03:10.247Z,12.75
2023-02-03T21:05:39.536Z,12.69
2023-02-03T21:08:18.444Z,12.58
2023-02-03T21:10:46.709Z,12.41
2023-02-03T21:13:26.268Z,12.31
2023-02-03T21:16:03.977Z,12.28
2023-02-03T21:18:43.193Z,12.29
2023-02-03T21:21:24.988Z,12.27
2023-02-03T21:23:52.954Z,12.17
2023-02-03T21:26:23.960Z,12.14
2023-02-03T21:28:58.604Z,11.97
2023-02-03T21:31:30.612Z,11.92
2023-02-03T21:33:58.447Z,11.89
2023-02-03T21:36:34.162Z,11.73
2023-02-03T21:39:01.721Z,11.73
2023-02-03T21:41:33.488Z,11.66
2023-02-03T21:44:00.786Z,11.73
2023-02-03T21:46:31.768Z,11.71
2023-02-03T21:48:59.946Z,11.71
2023-02-03T21:51:32.140Z,11.79
2023-02-03T21:54:01.114Z,11.63
2023-02-03T21:56:35.721Z,11.66
2023-02-03T21:59:02.575Z,11.51
2023-02-03T22:01:36.318Z,11.36
2023-02-03T22:04:04.130Z,11.28
2023-02-03T22:06:49.289Z,11.32
2023-02-03T22:09:18.257Z,11.27
2023-02-03T22:11:45.450Z,11.19
2023-02-03T22:14:13.547Z,11.12
2023-02-03T22:16:40.554Z,11.05
2023-02-03T22:19:07.368Z,11.03
2023-02-03T22:21:34.543Z,11.05
2023-02-03T22:24:01.606Z,11.00
2023-02-03T22:26:28.545Z,10.95
2023-02-03T22:28:55.306Z,10.96
2023-02-03T22:31:22.585Z,11.05
2023-02-03T22:33:49.367Z,10.99
2023-02-03T22:36:16.197Z,10.94
2023-02-03T22:38:43.519Z,10.82
2023-02-03T22:41:14.131Z,10.76
2023-02-03T22:43:41.024Z,10.79
2023-02-03T22:46:08.623Z,10.86
2023-02-03T22:48:35.486Z,10.87
2023-02-03T22:51:03.292Z,10.82
2023-02-03T22:53:30.548Z,10.93
2023-02-03T22:55:57.455Z,10.95
2023-02-03T22:58:24.239Z,11.04
2023-02-03T23:00:50.980Z,11.15
2023-02-03T23:03:17.780Z,11.15
2023-02-03T23:05:44.760Z,11.23
2023-02-03T23:08:11.594Z,11.17
2023-02-03T23:10:38.310Z,11.05
2023-02-03T23:13:05.328Z,11.13
2023-02-03T23:15:32.140Z,11.27
2023-02-03T23:17:58.998Z,11.23
2023-02-03T23:20:25.847Z,11.27
2023-02-03T23:22:52.624Z,11.32
2023-02-03T23:25:19.361Z,11.36
2023-02-03T23:27:46.235Z,11.38
2023-02-03T23:30:14.170Z,11.25
2023-02-03T23:32:40.949Z,11.35
2023-02-03T23:35:27.049Z,11.28
2023-02-03T23:37:53.886Z,11.23
2023-02-03T23:40:20.973Z,11.13
2023-02-03T23:42:47.690Z,11.08
2023-02-03T23:45:14.460Z,11.02
2023-02-03T23:47:43.089Z,11.05
2023-02-03T23:50:12.406Z,11.06
2023-02-03T23:52:39.179Z,10.97
2023-02-03T23:55:07.916Z,11.06
2023-02-03T23:57:34.866Z,11.05
